Date,TemperatureHighF,TemperatureAvgF,TemperatureLowF,DewpointHighF,DewpointAvgF,DewpointLowF,HumidityHigh,HumidityAvg,HumidityLow,PressureMaxIn,PressureMinIn,WindSpeedMaxMPH,WindSpeedAvgMPH,GustSpeedMaxMPH,PrecipitationSumIn
2013-1-20,71.8,71.8,71.8,58.5,58.5,58.5,63,63,63,30.14,30.14,7,7,0,0.00
2013-1-26,75.6,71.8,67.1,66.5,50.3,0.0,98,57,62,30.19,29.97,13,7,13,0.00
2013-4-13,55.0,55.0,55.0,34.0,34.0,34.0,45,45,45,30.05,30.05,12,6,12,0.00
2013-5-17,80.4,76.6,55.0,75.8,71.3,34.0,91,84,45,30.05,29.91,9,3,9,0.00
2013-5-18,88.7,81.0,73.6,78.1,75.1,72.7,100,83,69,30.03,29.95,12,4,12,0.00
2013-5-19,91.6,81.5,72.3,77.2,73.7,70.9,96,78,61,30.32,29.91,14,6,14,0.00
2013-5-20,88.5,78.4,69.1,78.4,75.3,69.1,100,90,72,30.02,29.88,26,5,26,5.34
2013-5-21,91.8,78.6,69.1,78.9,74.1,69.1,100,87,63,29.99,29.84,13,6,13,0.27
2013-5-22,92.3,81.2,72.0,81.1,75.6,71.1,100,84,63,29.88,29.80,14,4,14,0.50
2013-5-23,98.8,84.9,74.8,80.0,76.0,71.4,97,77,47,29.94,29.85,14,5,14,0.17
2013-5-24,89.1,79.6,71.4,75.8,74.5,69.3,100,84,65,30.00,29.93,12,2,12,0.00
2013-5-25,89.1,88.4,87.4,72.5,71.8,70.8,59,58,57,30.05,30.02,18,11,18,0.00
2013-5-26,88.5,84.7,81.0,74.2,72.5,70.6,73,67,59,30.08,30.02,19,10,19,0.00
2013-6-2,77.0,76.6,76.3,76.5,62.9,-31.2,100,87,1,29.92,29.88,1,0,2,0.00
2013-6-3,79.0,77.5,74.1,79.0,61.9,-32.6,100,81,1,29.92,29.84,12,2,12,0.02
2013-6-4,79.9,79.1,79.0,79.9,79.1,78.3,100,100,100,29.94,29.92,7,3,7,0.00
2013-6-5,79.7,79.2,79.2,79.7,79.2,79.2,100,100,100,29.94,29.92,8,3,8,0.00
2013-6-6,79.2,75.8,74.8,79.2,72.7,55.5,100,91,56,29.82,29.78,10,4,10,0.00
2013-6-7,93.2,82.8,74.7,90.9,34.9,-32.4,100,54,1,29.88,29.78,17,6,17,0.00
2013-6-23,83.5,83.5,83.5,83.5,83.5,83.5,100,100,100,30.01,30.01,7,5,7,0.00
2013-6-26,86.7,83.4,81.5,99.9,83.6,59.1,100,98,100,30.01,29.91,12,6,12,0.00
2013-6-27,88.5,80.6,77.2,88.3,80.6,77.0,100,100,98,29.97,29.85,9,2,9,0.00
2013-6-28,94.1,81.9,75.6,93.2,81.9,75.6,100,100,100,30.05,29.81,17,2,17,1.25
2013-6-29,92.5,82.2,76.1,87.2,80.7,76.1,100,96,82,29.86,29.77,6,2,6,0.00
2013-6-30,91.2,84.8,79.3,91.0,84.5,79.3,100,99,87,29.88,29.79,23,10,23,0.11
2013-7-1,91.6,82.2,77.0,91.4,82.2,77.0,100,100,100,29.96,29.84,18,5,18,0.29
2013-7-2,79.3,79.3,79.3,79.3,79.3,79.3,100,100,100,29.96,29.96,0,0,0,0.29
2013-7-3,85.8,81.2,75.2,85.8,81.2,75.2,100,100,100,30.06,29.94,15,8,15,0.40
2013-7-4,90.7,83.2,75.6,90.7,62.9,-31.8,100,80,1,30.08,29.99,20,10,20,0.29
2013-7-5,88.7,79.9,73.4,88.2,42.7,-32.2,100,65,1,30.08,29.94,17,6,17,0.84
2013-7-6,92.1,83.5,76.5,89.8,82.3,76.3,100,96,73,30.05,29.94,17,8,17,0.65
2013-7-7,92.5,85.1,79.0,90.9,84.3,73.5,100,98,56,30.02,29.94,21,10,21,0.00
2013-7-8,91.2,84.2,78.8,87.8,83.4,78.4,100,98,76,30.08,29.97,16,8,16,0.00
2013-7-9,87.8,80.1,72.9,87.8,80.1,72.9,100,100,100,30.08,29.99,10,5,10,1.19
2013-7-10,80.0,75.7,75.2,79.4,75.7,75.2,100,100,98,30.03,29.91,7,0,7,0.18
2013-7-11,95.2,83.8,75.6,91.6,83.0,72.6,100,98,83,29.98,29.88,6,1,6,0.36
2013-7-12,88.3,80.2,77.7,88.2,80.2,77.7,100,100,100,29.92,29.85,0,0,0,0.00
2013-7-13,92.5,85.4,72.5,87.6,71.0,-29.2,100,69,14,29.97,29.85,9,5,9,3.75
2013-7-21,87.3,83.8,81.7,99.9,75.8,73.4,76,75,76,30.08,29.94,9,8,9,3.76
2013-7-22,81.7,80.0,79.2,73.4,71.8,71.0,76,76,76,30.08,30.01,8,8,8,0.00
2013-8-1,79.3,79.3,79.3,71.1,71.1,71.1,76,76,76,30.03,30.03,8,8,0,0.00
2013-8-21,79.3,79.3,79.3,71.1,71.1,71.1,76,76,76,30.03,30.03,8,8,8,0.00
2013-8-25,79.3,79.3,79.3,71.1,71.1,71.1,76,76,76,30.03,30.03,8,8,8,0.00